ADDS METAR Data INFO
IDs: Format: Raw Decoded Include TAF

Data at: 2341 UTC 15 Dec 2017

KRNM 152253Z 27007KT 10SM CLR 24/M06 A3004 RMK AO2 SLP164 T02441061
KRNM 152153Z 26011KT 10SM CLR 24/M06 A3005 RMK AO2 SLP170 T02441061
KRNM 152053Z 31007KT 10SM CLR 27/M12 A3007 RMK AO2 SLP175 T02671122 58030
KRNM 151953Z 09010KT 10SM CLR 27/M15 A3011 RMK AO2 SLP188 T02671150
KRNM 151853Z 07013G18KT 10SM CLR 26/M14 A3014 RMK AO2 SLP196 T02561139
KRNM 151753Z 10009G21KT 10SM CLR 23/M13 A3017 RMK AO2 SLP207 T02331128 10233 20033 53008
KRNM 151653Z 07014G21KT 10SM CLR 22/M13 A3015 RMK AO2 SLP201 T02221128
KRNM 151553Z AUTO 06011KT 10SM CLR 20/M14 A3014 RMK AO2 SLP199 T02001139
KRNM 151453Z AUTO 05005KT 10SM CLR 06/M12 A3014 RMK AO2 SLP205 T00611122 53005
KRNM 151353Z AUTO 00000KT 10SM CLR 06/M11 A3013 RMK AO2 SLP202 T00611111
KRNM 151253Z 10004KT 10SM CLR 05/M11 A3011 RMK AO2 SLP193 T00501106
KRNM 151153Z 09005KT 10SM CLR 05/M11 A3013 RMK AO2 SLP195 T00501106 10133 20033 50002
KRNM 151053Z 17003KT 10SM CLR 06/M11 A3013 RMK AO2 SLP196 T00611106
KRNM 150953Z 00000KT 10SM CLR 05/M11 A3012 RMK AO2 SLP193 T00501106
KRNM 150853Z 23003KT 10SM CLR 04/M11 A3012 RMK AO2 SLP192 T00391106 51008
KRNM 150753Z 00000KT 10SM CLR 08/M12 A3012 RMK AO2 SLP190 T00781117 402561017
KRNM 150653Z 36003KT 10SM CLR 12/M13 A3011 RMK AO2 SLP188 T01171128
KRNM 150553Z 09004KT 10SM CLR 08/M11 A3010 RMK AO2 SLP184 T00781106 10217 20072 51010
KRNM 150453Z 19004KT 10SM CLR 08/M10 A3009 RMK AO2 SLP184 T00831100
KRNM 150353Z 10004KT 10SM CLR 09/M10 A3008 RMK AO2 SLP183 T00941100
KRNM 150253Z 09005KT 10SM CLR 11/M08 A3006 RMK AO2 SLP182 T01061078 51019
KRNM 150153Z 27004KT 10SM CLR 12/M07 A3005 RMK AO2 SLP177 T01171067
KRNM 150053Z 09007KT 10SM CLR 16/M07 A3003 RMK AO2 SLP165 T01561067
KRNM 142353Z 27006KT 10SM CLR 22/M04 A3001 RMK AO2 SLP157 T02171044 10256 20217 53003
KRNM 142253Z 30008KT 10SM CLR 24/M07 A2999 RMK AO2 SLP150 T02391072
KRNM 142153Z 27004KT 10SM CLR 24/M09 A2999 RMK AO2 SLP150 T02441094
KRNM 142053Z 28006KT 10SM CLR 24/M09 A3000 RMK AO2 SLP152 T02441094 58012
KRNM 141953Z 31010KT 10SM CLR 24/M13 A3002 RMK AO2 SLP158 T02441133
KRNM 141853Z 32008KT 10SM CLR 23/M11 A3003 RMK AO2 SLP162 T02281106
KRNM 141753Z VRB03KT 10SM CLR 21/M11 A3004 RMK AO2 SLP164 T02111106 10211 21017 51010
KRNM 141653Z 23003KT 10SM CLR 16/M09 A3003 RMK AO2 SLP167 T01561094
KRNM 141553Z 00000KT 10SM CLR 07/M08 A3003 RMK AO2 SLP167 T00721083
KRNM 141453Z AUTO VRB03KT 10SM CLR 01/M09 A3001 RMK AO2 SLP161 T00111089 53011
KRNM 141353Z AUTO 00000KT 10SM CLR 01/M10 A2999 RMK AO2 SLP156 T00061100
KRNM 141253Z AUTO 00000KT 10SM CLR 01/M08 A2997 RMK AO2 SLP145 T00061083
KRNM 141153Z AUTO 00000KT 10SM CLR 01/M08 A2997 RMK AO2 SLP143 T00111078 10056 20000 56005